ZSPDDBBB

Guest
Details From ZSPD - Pudong
To DBBB - Cadjehoun
Flight Number -
Tags Generated
Created
Modified
Stats Distance 6,675 nm / 12,363 km
Max Altitude 0 ft / 0 m
Waypoints 6
Social Downloads 0
Likes 0
Share VATSIM

Download

Looking for another format? Having issues loading an existing format? Contact us
Advertisement - Login to hide

Notes

Generated

Route

ZSPD JIMPO SKD TAL30 CO DBBB

ID Type Via Altitude Latitude Longitude Leg Dist Tot Dist Heading (true) Name
O ZSPD APT - 0 ft / 0 m 31.15901˚ 121.81167˚ - 0 nm - -
JIMPO FIX - 0 ft / 0 m 35.30000˚ 63.65000˚ 2890 nm 2890 nm 291° / 257° -
SKD NDB - 0 ft / 0 m 32.30547˚ 50.83858˚ 663 nm 3554 nm 258° / 251° SHAHRE KORD NDB
TAL30 FIX - 0 ft / 0 m 30.92311˚ 46.11149˚ 255 nm 3809 nm 252° / 250° -
CO NDB - 0 ft / 0 m 6.37081˚ 2.40250˚ 2863 nm 6673 nm 248° / 233° COTONOU NDB
O DBBB APT - 0 ft / 0 m 6.35071˚ 2.37568˚ 2 nm 6675 nm 233° / 233° -

Altitude Profile

Advertisement - Login to hide

Weather


0- 5 10 15 20 25 30 35+ Temperature / ° C

Clouds and Precipitation
Forecast for 2017-12-12 00:00 UTC. Updated 13 minutes ago

Ground ~20,000 ft ~40,000 ft Winds

ZSPD

Details ICAO ZSPD (PVG)
Name PUDONG
Region China
Timezone Asia/Shanghai (UTC+8.0)
Stats Elevation 13 ft / 4 m (AMSL)
Location 31.143427° 121.805092°
Runways 2
Magnetic Variation 5.978° W

METAR

ZSPD 112330Z 02008MPS CAVOK 07/M00 Q1031 NOSIG

Decode

TAF

Not found

Departure Runways

ID Width Length Bearing (true) Bearing (mag) Surface Threshold Offset Overrun Length
16 197 ft / 60 m 12,500 ft / 3,810 m 162.09° 168.07° Concrete 0 ft / 0 m 395 ft / 120 m
17 197 ft / 60 m 13,155 ft / 4,010 m 162.09° 168.07° Concrete 0 ft / 0 m 196 ft / 60 m
34 197 ft / 60 m 12,500 ft / 3,810 m 342.10° 348.08° Concrete 0 ft / 0 m 395 ft / 120 m
35 197 ft / 60 m 13,155 ft / 4,010 m 342.10° 348.08° Concrete 0 ft / 0 m 196 ft / 60 m

DBBB

Details ICAO DBBB (COO)
Name CADJEHOUN
Region Benin
Timezone Africa/Porto-Novo (UTC+1.0)
Stats Elevation 19 ft / 6 m (AMSL)
Location 6.357227° 2.384353°
Runways 1
Magnetic Variation 2.522° W

METAR

DBBB 112200Z VRB02KT 2700 HZ FEW010 27/20 Q1011 NOSIG

Decode

TAF

TAF TAF DBBB 111100Z 1112/1218 36006KT 2000 HZ NSC TEMPO 1113/1118 1200 DU

Decode

Destination Runways

ID Width Length Bearing (true) Bearing (mag) Surface Threshold Offset Overrun Length
06 148 ft / 45 m 7,887 ft / 2,404 m 52.94° 55.46° Asphalt 125 ft / 38 m 199 ft / 61 m
24 148 ft / 45 m 7,887 ft / 2,404 m 232.94° 235.46° Asphalt 0 ft / 0 m 416 ft / 127 m

Approach Navaids

Runway Type Ident Frequency Range Bearing (true) Bearing (mag) Slope Elevation
24 Localiser ICN 109.50 MHz 18 nm / 33 km 232.72° 235.25° - 19 ft / 6 m (AMSL)
24 Glidescope ICN 109.50 MHz 10 nm / 19 km 232.94° 235.47° 3.00° 19 ft / 6 m (AMSL)
24 DME ICN 109.50 MHz 18 nm / 33 km - - - 19 ft / 6 m (AMSL)